Jasná obloha bez mrakov
Jasná obloha bez mrakov
Jasná obloha bez mrakov
Jasno ale spara
Polojasno
Väčšinou oblačno
Polojasno s ojedinelými riasovitými oblakmi
(°C)
(°C)
JV
JV
JV
JV
JJV
JJV
JJV
(km/h)
13-21
12-17
11-18
11-17
12-19
12-21
13-24
(mm)
0
0
0
0
0
0
0
(%)
0
0
0
0
0
0
0

Výška Slnka nad obzorom

/ -36.6°
sun-icon
UV 2
07:05
18:03
Zmenšujúci sa polmesiac (245°)
----
08:43

Správy METAR pre lokalitu Bordenau (EDDV)

Čas Podmienky Teplota/
Rosný bod
Vietor Viditeľnosť Počasie Oblaky Tlak Zmeniť Nespracované
VFR 5°C / 2°C 140º 5kt 9700m - Clouds and Visibility OK 1005 - EDDV 010120Z AUTO 14005KT CAVOK 05/02 Q1005
VFR 5°C / 1°C 140º variable 110º to 180º 5kt 9700m - Clouds and Visibility OK 1005 - EDDV 010050Z AUTO 14005KT 110V180 CAVOK 05/01 Q1005
VFR 5°C / 1°C 120º variable 090º to 150º 5kt 9700m - Clouds and Visibility OK 1005 - EDDV 010020Z AUTO 12005KT 090V150 CAVOK 05/01 Q1005
VFR 5°C / 1°C 120º variable 080º to 210º 3kt 9700m - Clouds and Visibility OK 1006 - EDDV 292350Z AUTO 12003KT 080V210 CAVOK 05/01 Q1006
VFR 4°C / 0°C 110º 3kt 9700m - Clouds and Visibility OK 1005 - EDDV 292320Z AUTO 11003KT CAVOK 04/00 Q1005
VFR 6°C / 1°C 130º variable 100º to 170º 3kt 9700m - Clouds and Visibility OK 1006 - EDDV 292250Z AUTO 13003KT 100V170 CAVOK 06/01 Q1006
VFR 6°C / 1°C 130º variable 090º to 160º 4kt 9700m - Clouds and Visibility OK 1006 - EDDV 292220Z AUTO 13004KT 090V160 CAVOK 06/01 Q1006
VFR 7°C / 1°C 130º 5kt 9700m - Clouds and Visibility OK 1006 - EDDV 292150Z AUTO 13005KT CAVOK 07/01 Q1006
VFR 7°C / 1°C 150º 7kt 9700m - Clouds and Visibility OK 1007 - EDDV 292120Z AUTO 15007KT CAVOK 07/01 Q1007
VFR 7°C / 1°C 150º 6kt 9700m - Clouds and Visibility OK 1007 No Significant change EDDV 292050Z AUTO 15006KT CAVOK 07/01 Q1007 NOSIG
VFR 7°C / 1°C 160º variable 140º to 200º 7kt 9700m - Clouds and Visibility OK 1007 No Significant change EDDV 292020Z AUTO 16007KT 140V200 CAVOK 07/01 Q1007 NOSIG
VFR 7°C / 1°C 160º variable 120º to 190º 5kt 9700m - Clouds and Visibility OK 1008 No Significant change EDDV 291950Z AUTO 16005KT 120V190 CAVOK 07/01 Q1008 NOSIG
VFR 8°C / 1°C 150º variable 120º to 190º 5kt 9700m - Clouds and Visibility OK 1008 No Significant change EDDV 291920Z AUTO 15005KT 120V190 CAVOK 08/01 Q1008 NOSIG
VFR 9°C / 1°C 150º variable 110º to 180º 6kt 9700m - Clouds and Visibility OK 1008 No Significant change EDDV 291850Z AUTO 15006KT 110V180 CAVOK 09/01 Q1008 NOSIG
VFR 9°C / 1°C 140º 5kt 9700m - Clouds and Visibility OK 1008 No Significant change EDDV 291820Z AUTO 14005KT CAVOK 09/01 Q1008 NOSIG
VFR 9°C / 1°C 130º 5kt 9700m - Clouds and Visibility OK 1008 No Significant change EDDV 291750Z AUTO 13005KT CAVOK 09/01 Q1008 NOSIG
VFR 9°C / 1°C 130º 4kt 9700m - Clouds and Visibility OK 1008 No Significant change EDDV 291720Z AUTO 13004KT CAVOK 09/01 Q1008 NOSIG
VFR 10°C / 1°C 150º 4kt 9700m - Clouds and Visibility OK 1008 No Significant change EDDV 291650Z AUTO 15004KT CAVOK 10/01 Q1008 NOSIG
VFR 11°C / 1°C 150º variable 120º to 210º 6kt 9700m - Clouds and Visibility OK 1009 No Significant change EDDV 291620Z AUTO 15006KT 120V210 CAVOK 11/01 Q1009 NOSIG
VFR 11°C / 2°C 140º variable 100º to 170º 7kt 9700m - Clouds and Visibility OK 1009 - EDDV 291550Z AUTO 14007KT 100V170 CAVOK 11/02 Q1009
VFR 12°C / 2°C 150º variable 110º to 170º 9kt 9700m - Clouds and Visibility OK 1009 No Significant change EDDV 291520Z AUTO 15009KT 110V170 CAVOK 12/02 Q1009 NOSIG
VFR 12°C / 2°C 160º variable 130º to 200º 9kt 9700m - Clouds and Visibility OK 1010 No Significant change EDDV 291450Z AUTO 16009KT 130V200 CAVOK 12/02 Q1010 NOSIG
VFR 12°C / 2°C 160º variable 130º to 200º 8kt 9700m - Clouds and Visibility OK 1010 No Significant change EDDV 291420Z AUTO 16008KT 130V200 CAVOK 12/02 Q1010 NOSIG
VFR 12°C / 2°C 150º variable 110º to 180º 9kt 9700m - Clouds and Visibility OK 1010 No Significant change EDDV 291350Z AUTO 15009KT 110V180 CAVOK 12/02 Q1010 NOSIG

VFR

5°C / 2°C

[Viac]
Vietor 140º 5kt
Viditeľnosť 9700m
Počasie -
Oblaky Clouds and Visibility OK
Tlak 1005
Zmeniť -
Nespracované EDDV 010120Z AUTO 14005KT CAVOK 05/02 Q1005

VFR

5°C / 1°C

[Viac]
Vietor 140º variable 110º to 180º 5kt
Viditeľnosť 9700m
Počasie -
Oblaky Clouds and Visibility OK
Tlak 1005
Zmeniť -
Nespracované EDDV 010050Z AUTO 14005KT 110V180 CAVOK 05/01 Q1005

VFR

5°C / 1°C

[Viac]
Vietor 120º variable 090º to 150º 5kt
Viditeľnosť 9700m
Počasie -
Oblaky Clouds and Visibility OK
Tlak 1005
Zmeniť -
Nespracované EDDV 010020Z AUTO 12005KT 090V150 CAVOK 05/01 Q1005

VFR

5°C / 1°C

[Viac]
Vietor 120º variable 080º to 210º 3kt
Viditeľnosť 9700m
Počasie -
Oblaky Clouds and Visibility OK
Tlak 1006
Zmeniť -
Nespracované EDDV 292350Z AUTO 12003KT 080V210 CAVOK 05/01 Q1006

VFR

4°C / 0°C

[Viac]
Vietor 110º 3kt
Viditeľnosť 9700m
Počasie -
Oblaky Clouds and Visibility OK
Tlak 1005
Zmeniť -
Nespracované EDDV 292320Z AUTO 11003KT CAVOK 04/00 Q1005

VFR

6°C / 1°C

[Viac]
Vietor 130º variable 100º to 170º 3kt
Viditeľnosť 9700m
Počasie -
Oblaky Clouds and Visibility OK
Tlak 1006
Zmeniť -
Nespracované EDDV 292250Z AUTO 13003KT 100V170 CAVOK 06/01 Q1006

VFR

6°C / 1°C

[Viac]
Vietor 130º variable 090º to 160º 4kt
Viditeľnosť 9700m
Počasie -
Oblaky Clouds and Visibility OK
Tlak 1006
Zmeniť -
Nespracované EDDV 292220Z AUTO 13004KT 090V160 CAVOK 06/01 Q1006

VFR

7°C / 1°C

[Viac]
Vietor 130º 5kt
Viditeľnosť 9700m
Počasie -
Oblaky Clouds and Visibility OK
Tlak 1006
Zmeniť -
Nespracované EDDV 292150Z AUTO 13005KT CAVOK 07/01 Q1006

VFR

7°C / 1°C

[Viac]
Vietor 150º 7kt
Viditeľnosť 9700m
Počasie -
Oblaky Clouds and Visibility OK
Tlak 1007
Zmeniť -
Nespracované EDDV 292120Z AUTO 15007KT CAVOK 07/01 Q1007

VFR

7°C / 1°C

[Viac]
Vietor 150º 6kt
Viditeľnosť 9700m
Počasie -
Oblaky Clouds and Visibility OK
Tlak 1007
Zmeniť No Significant change
Nespracované EDDV 292050Z AUTO 15006KT CAVOK 07/01 Q1007 NOSIG

VFR

7°C / 1°C

[Viac]
Vietor 160º variable 140º to 200º 7kt
Viditeľnosť 9700m
Počasie -
Oblaky Clouds and Visibility OK
Tlak 1007
Zmeniť No Significant change
Nespracované EDDV 292020Z AUTO 16007KT 140V200 CAVOK 07/01 Q1007 NOSIG

VFR

7°C / 1°C

[Viac]
Vietor 160º variable 120º to 190º 5kt
Viditeľnosť 9700m
Počasie -
Oblaky Clouds and Visibility OK
Tlak 1008
Zmeniť No Significant change
Nespracované EDDV 291950Z AUTO 16005KT 120V190 CAVOK 07/01 Q1008 NOSIG

VFR

8°C / 1°C

[Viac]
Vietor 150º variable 120º to 190º 5kt
Viditeľnosť 9700m
Počasie -
Oblaky Clouds and Visibility OK
Tlak 1008
Zmeniť No Significant change
Nespracované EDDV 291920Z AUTO 15005KT 120V190 CAVOK 08/01 Q1008 NOSIG

VFR

9°C / 1°C

[Viac]
Vietor 150º variable 110º to 180º 6kt
Viditeľnosť 9700m
Počasie -
Oblaky Clouds and Visibility OK
Tlak 1008
Zmeniť No Significant change
Nespracované EDDV 291850Z AUTO 15006KT 110V180 CAVOK 09/01 Q1008 NOSIG

VFR

9°C / 1°C

[Viac]
Vietor 140º 5kt
Viditeľnosť 9700m
Počasie -
Oblaky Clouds and Visibility OK
Tlak 1008
Zmeniť No Significant change
Nespracované EDDV 291820Z AUTO 14005KT CAVOK 09/01 Q1008 NOSIG

VFR

9°C / 1°C

[Viac]
Vietor 130º 5kt
Viditeľnosť 9700m
Počasie -
Oblaky Clouds and Visibility OK
Tlak 1008
Zmeniť No Significant change
Nespracované EDDV 291750Z AUTO 13005KT CAVOK 09/01 Q1008 NOSIG

VFR

9°C / 1°C

[Viac]
Vietor 130º 4kt
Viditeľnosť 9700m
Počasie -
Oblaky Clouds and Visibility OK
Tlak 1008
Zmeniť No Significant change
Nespracované EDDV 291720Z AUTO 13004KT CAVOK 09/01 Q1008 NOSIG

VFR

10°C / 1°C

[Viac]
Vietor 150º 4kt
Viditeľnosť 9700m
Počasie -
Oblaky Clouds and Visibility OK
Tlak 1008
Zmeniť No Significant change
Nespracované EDDV 291650Z AUTO 15004KT CAVOK 10/01 Q1008 NOSIG

VFR

11°C / 1°C

[Viac]
Vietor 150º variable 120º to 210º 6kt
Viditeľnosť 9700m
Počasie -
Oblaky Clouds and Visibility OK
Tlak 1009
Zmeniť No Significant change
Nespracované EDDV 291620Z AUTO 15006KT 120V210 CAVOK 11/01 Q1009 NOSIG

VFR

11°C / 2°C

[Viac]
Vietor 140º variable 100º to 170º 7kt
Viditeľnosť 9700m
Počasie -
Oblaky Clouds and Visibility OK
Tlak 1009
Zmeniť -
Nespracované EDDV 291550Z AUTO 14007KT 100V170 CAVOK 11/02 Q1009

VFR

12°C / 2°C

[Viac]
Vietor 150º variable 110º to 170º 9kt
Viditeľnosť 9700m
Počasie -
Oblaky Clouds and Visibility OK
Tlak 1009
Zmeniť No Significant change
Nespracované EDDV 291520Z AUTO 15009KT 110V170 CAVOK 12/02 Q1009 NOSIG

VFR

12°C / 2°C

[Viac]
Vietor 160º variable 130º to 200º 9kt
Viditeľnosť 9700m
Počasie -
Oblaky Clouds and Visibility OK
Tlak 1010
Zmeniť No Significant change
Nespracované EDDV 291450Z AUTO 16009KT 130V200 CAVOK 12/02 Q1010 NOSIG

VFR

12°C / 2°C

[Viac]
Vietor 160º variable 130º to 200º 8kt
Viditeľnosť 9700m
Počasie -
Oblaky Clouds and Visibility OK
Tlak 1010
Zmeniť No Significant change
Nespracované EDDV 291420Z AUTO 16008KT 130V200 CAVOK 12/02 Q1010 NOSIG

VFR

12°C / 2°C

[Viac]
Vietor 150º variable 110º to 180º 9kt
Viditeľnosť 9700m
Počasie -
Oblaky Clouds and Visibility OK
Tlak 1010
Zmeniť No Significant change
Nespracované EDDV 291350Z AUTO 15009KT 110V180 CAVOK 12/02 Q1010 NOSIG

Správy TAF pre lokalitu Bordenau (EDDV)

From till


From till Wind 130º 4kt. Visibility 9700m. Nil Significant Cloud.
Becoming from till
Becoming from till
Becoming from till

Nespracované: TAF EDDV 292300Z 0100/0124 13004KT CAVOK BECMG 0109/0112 20010KT BECMG 0113/0115 19005KT BECMG 0116/0118 13005KT

rainNOW: Predpoveď dažďa pre Bordenau a okolie (v okruhu 25 km)

0.0 mm
0.0 mm
0.0 mm
0.0 mm
0.0 mm
0.0 mm
0.0 mm
0.0 mm
0.0 mm
0.0 mm
0.0 mm
0.0 mm

Radar a krátkodobá predpoveď zrážok pre Bordenau

Mrholenie
Slabý
Mierne
Ťažké
Veľmi ťažké
Krúpy

Značka polohy je umiestnená na Bordenau. Táto animácia zobrazuje zrážkový radar pre vybraný časový rozsah, ako aj 2h predpoveď. Oranžové krížiky označujú blesky. Údaje poskytol nowcast.de (k dispozícii v USA, Európe a Austrálii). Mrholenie alebo slabé sneženie môže byť pre radar neviditeľné. Intenzita zrážok je farebne označená od tyrkysovej po červenú.

Aktuálne satelitné snímky a snímky zrážok pre lokalitu Bordenau, Nemecko

Značka polohy je umiestnená naBordenau. [Viac]

Satelitné snímky zhotovované v reálnom čase využívajú viditeľné svetlo počas dňa a infračervené žiarenie počas noci. Vzhľadom na to, že infračervené žiarenie zisťuje teplotné rozdiely, snímka v noci nie je tmavá. Nízke oblaky a hmlu je, žiaľ, ťažké odlíšiť od prízemných teplôt, preto môžu byť počas noci takmer neviditeľné. Meteosat satelitné snímky pre Európu sú aktualizované v reálnom čase každých 5 minút. Snímky z GOES-16/GOES-17 (Severná a Južná Amerika) a Himawari (Ázia) sú aktualizované každých 10 minút.

Zrážky sa odhadujú z radarov a satelitov. Odhady zrážok zo satelitov sú v noci menej presné ako počas dňa.

© 2024 meteoblue, NOAA Satellites GOES-16 and EUMETSAT. Údaje o bleskoch poskytuje nowcast.

Späť nahor
×
Dobrý deň,
zdá sa, že používate blokovač reklám.

Inzercia je nevyhnutná na udržiavanie našej bezplatnej webovej stránky s jedinečnými detailmi a presnosťou.

Prosím, zapíšte si www.meteoblue.com na bielu listinu blokovača reklám alebo zvážte kúpu niektorého z našich produktov:

Už máte predplatné?
Potom sa prosím prihláste.